Startpagina
METAR-TAF:

METAR-TAF

Vliegvelden :

Bagdad, Irak

Internationale Luchthaven Baghdad

breedte: 33-15-45N, lengte: 44-14-04E, hoogte: 35 m

Actueel weer

Dit bericht is 7 minuten geleden gemaakt, om 16:00 UTC
Wind 13 kt uit het oostzuidoosten
Temperatuur 21°C
Vochtigheid 43%
Druk 1016 hPa
Zicht 10 km of meer
Verspreide wolken op 3000 ft

METAR: ORBI 191600Z 12013KT 9999 SCT030 21/08 Q1016 NOSIG

Tijdstip: 19:07 (16:07 UTC)

Verwachting

Dit bericht is 6 uur en het 7 minuten geleden gemaakt, om 10:00 UTC
Verwachting geldig van 19 om 12 UTC tot 20 om 12 UTC
Wind 15 kt uit het oostzuidoosten
Zicht: 8000 m

TAF: ORBI 191000Z 1912/2012 12015KT 8000 NSC

Waarnemingen en weersverwachtingen van meer dan 4000 vliegvelden (METAR en TAF).

De beschikbare stations zijn de gele en rode punten op de kaart.

Ga met uw muis naar het station om de naam te zien.

Klik dan om waarnemingen en weersverwachtingen te zien.

kaart wijzigen: klik op de groene knoppen met een zwart kruis om in te zoomen, op de groene knop met een streepje om uit te zoomen of op de groene pijlen voor aangrenzende kaarten.


METAR-TAF: